Time;durP1;ratioP1;P1;durP2;ratioP2;P2;SDS_P1;SDS_P2;PMS_P1;PMS_P2;Temp;Humidity;BMP_temperature;BMP_pressure;BME280_temperature;BME280_humidity;BME280_pressure;Samples;Min_cycle;Max_cycle;Signal;HPM_P1;HPM_P2
2021/12/24 00:01:13;;;;;;;12.50;3.73;;;1.40;99.90;;;;;;5035423;28;20282;-70
2021/12/24 00:03:40;;;;;;;15.83;4.63;;;1.40;99.90;;;;;;5036176;28;20191;-70
2021/12/24 00:06:07;;;;;;;11.57;3.53;;;1.30;99.90;;;;;;5038645;28;20186;-70
2021/12/24 00:08:33;;;;;;;20.67;5.63;;;1.40;99.90;;;;;;5036915;28;20539;-71
2021/12/24 00:11:01;;;;;;;23.60;6.47;;;1.40;99.90;;;;;;5033032;28;20214;-70
2021/12/24 00:13:36;;;;;;;19.27;5.57;;;1.50;99.90;;;;;;5034125;28;20199;-70
2021/12/24 00:16:29;;;;;;;16.70;4.80;;;1.60;99.90;;;;;;5032525;28;20233;-70
2021/12/24 00:19:15;;;;;;;10.67;3.23;;;1.40;99.90;;;;;;5033808;28;20184;-70
2021/12/24 00:35:35;;;;;;;21.57;6.07;;;1.40;99.90;;;;;;5034771;28;20198;-71
2021/12/24 00:38:06;;;;;;;16.17;4.60;;;1.70;99.90;;;;;;5037683;28;20183;-71
2021/12/24 00:40:35;;;;;;;11.97;3.67;;;;;;;;;;5039623;28;20282;-71
2021/12/24 00:43:02;;;;;;;16.33;4.53;;;;;;;;;;5038360;28;20196;-71
2021/12/24 00:45:31;;;;;;;11.10;3.40;;;1.50;99.90;;;;;;5048692;28;20724;-71
2021/12/24 00:47:59;;;;;;;12.33;3.83;;;;;;;;;;5038205;28;20652;-71
2021/12/24 00:50:27;;;;;;;16.10;4.63;;;;;;;;;;5035877;28;20230;-71
2021/12/24 00:53:04;;;;;;;11.67;3.50;;;;;;;;;;5032242;28;20208;-71
2021/12/24 00:55:32;;;;;;;18.00;5.20;;;1.50;99.90;;;;;;5041593;28;20818;-71
2021/12/24 00:58:00;;;;;;;14.93;4.33;;;;;;;;;;5041782;28;20191;-71
2021/12/24 01:00:32;;;;;;;15.87;4.57;;;;;;;;;;5036642;28;20230;-70
2021/12/24 01:02:59;;;;;;;15.60;4.47;;;;;;;;;;5039105;28;20286;-70
2021/12/24 01:05:27;;;;;;;21.47;6.03;;;;;;;;;;5037583;28;20190;-70
2021/12/24 01:07:55;;;;;;;11.70;3.43;;;;;;;;;;5043779;28;20183;-70
2021/12/24 01:10:22;;;;;;;7.27;2.27;;;;;;;;;;5047366;28;20180;-70
2021/12/24 01:12:51;;;;;;;15.77;4.43;;;;;;;;;;5038160;28;20211;-70
2021/12/24 01:15:17;;;;;;;12.57;3.73;;;1.70;99.90;;;;;;5035951;28;20210;-70
2021/12/24 01:17:51;;;;;;;12.63;3.73;;;1.70;99.90;;;;;;5042263;28;20184;-70
2021/12/24 01:28:15;;;;;;;11.10;3.37;;;1.80;99.90;;;;;;5046965;28;20195;-70
2021/12/24 01:39:09;;;;;;;11.73;3.40;;;1.80;99.90;;;;;;5038219;28;20191;-70
2021/12/24 01:44:26;;;;;;;13.73;3.97;;;1.90;99.90;;;;;;5038008;28;20243;-71
2021/12/24 01:46:53;;;;;;;7.43;2.37;;;1.90;99.90;;;;;;5045598;28;20624;-70
2021/12/24 01:49:18;;;;;;;8.97;2.80;;;1.80;99.90;;;;;;5037869;28;20194;-70
2021/12/24 01:51:44;;;;;;;11.00;3.30;;;1.80;99.90;;;;;;5041471;28;20214;-71
2021/12/24 01:54:11;;;;;;;13.43;3.90;;;1.90;99.90;;;;;;5039359;28;20195;-71
2021/12/24 01:56:37;;;;;;;17.13;4.80;;;1.80;99.90;;;;;;5044403;28;20190;-70
2021/12/24 01:59:03;;;;;;;13.93;4.17;;;1.90;99.90;;;;;;5038634;28;20211;-70
2021/12/24 02:01:28;;;;;;;9.33;3.00;;;1.90;99.90;;;;;;5041083;28;20230;-71
2021/12/24 02:03:54;;;;;;;11.03;3.27;;;1.80;99.90;;;;;;5040019;28;20179;-70
2021/12/24 02:06:21;;;;;;;15.97;4.50;;;1.90;99.90;;;;;;5036727;28;20183;-71
2021/12/24 02:08:47;;;;;;;10.93;3.40;;;1.90;99.90;;;;;;5035656;28;20211;-71
2021/12/24 02:11:12;;;;;;;7.80;2.47;;;1.90;99.90;;;;;;5037011;28;20706;-71
2021/12/24 02:13:39;;;;;;;18.20;5.10;;;1.90;99.90;;;;;;5042422;28;20196;-70
2021/12/24 02:29:31;;;;;;;8.70;2.73;;;2.00;99.90;;;;;;5036549;28;20638;-71
2021/12/24 02:31:57;;;;;;;8.10;2.57;;;2.00;99.90;;;;;;5040504;28;20212;-70
2021/12/24 02:34:23;;;;;;;11.33;3.27;;;2.40;99.90;;;;;;5041216;28;20176;-72
2021/12/24 02:36:48;;;;;;;4.60;1.67;;;2.00;99.90;;;;;;5045870;28;20282;-71
2021/12/24 02:39:14;;;;;;;15.60;4.40;;;2.10;99.90;;;;;;5038606;28;20556;-71
2021/12/24 02:41:39;;;;;;;9.13;2.90;;;2.10;99.90;;;;;;5034985;28;20215;-71
2021/12/24 02:44:05;;;;;;;19.77;5.53;;;2.10;99.90;;;;;;5033831;28;20187;-71
2021/12/24 02:46:39;;;;;;;13.90;4.10;;;2.10;99.90;;;;;;5037931;28;20191;-71
2021/12/24 02:49:13;;;;;;;9.20;2.80;;;2.30;99.90;;;;;;5042304;28;20191;-71
2021/12/24 02:54:24;;;;;;;11.10;3.40;;;1.90;99.90;;;;;;5033710;28;20220;-71
2021/12/24 02:56:58;;;;;;;16.40;4.70;;;2.10;99.90;;;;;;5042217;28;20190;-71
2021/12/24 02:59:26;;;;;;;14.57;4.17;;;1.60;99.90;;;;;;5037289;28;20204;-71
2021/12/24 03:01:53;;;;;;;11.60;3.47;;;2.10;99.90;;;;;;5039646;28;20750;-71
2021/12/24 03:04:19;;;;;;;10.40;3.23;;;2.10;99.90;;;;;;5050106;28;20223;-71
2021/12/24 03:06:48;;;;;;;14.43;4.13;;;2.10;99.90;;;;;;5038782;28;20234;-71
2021/12/24 03:09:16;;;;;;;7.50;2.33;;;2.10;99.90;;;;;;5045796;28;20191;-71
2021/12/24 03:11:43;;;;;;;12.23;3.67;;;2.10;99.90;;;;;;5039666;28;20211;-71
2021/12/24 03:14:09;;;;;;;20.63;5.80;;;2.10;99.90;;;;;;5036070;28;20606;-71
2021/12/24 03:16:36;;;;;;;7.77;2.50;;;2.20;99.90;;;;;;5039665;28;20195;-71
2021/12/24 03:19:02;;;;;;;13.47;4.00;;;2.20;99.90;;;;;;5035461;28;20176;-71
2021/12/24 03:21:44;;;;;;;25.90;8.00;;;2.10;99.90;;;;;;5055106;22;20230;-74
2021/12/24 03:26:37;;;;;;;11.83;3.80;;;;;;;;;;5037521;28;20191;-75
2021/12/24 03:29:04;;;;;;;15.87;5.00;;;2.20;99.90;;;;;;5033908;28;20195;-75
2021/12/24 03:31:30;;;;;;;9.20;3.07;;;2.20;99.90;;;;;;5040296;28;20219;-75
2021/12/24 03:33:55;;;;;;;12.50;4.03;;;2.20;99.90;;;;;;5038099;28;20191;-75
2021/12/24 03:36:23;;;;;;;11.93;3.90;;;2.20;99.90;;;;;;5036285;28;20226;-75
2021/12/24 03:38:49;;;;;;;9.07;3.13;;;2.30;99.90;;;;;;5031634;28;20211;-75
2021/12/24 03:41:15;;;;;;;20.97;6.47;;;2.20;99.90;;;;;;5028147;28;20282;-75
2021/12/24 03:43:40;;;;;;;12.20;3.97;;;2.20;99.90;;;;;;5029608;28;20198;-75
2021/12/24 03:46:10;;;;;;;13.37;4.27;;;2.20;99.90;;;;;;5036046;28;20227;-75
2021/12/24 03:48:49;;;;;;;8.13;2.83;;;2.20;99.90;;;;;;5037805;28;20187;-75
2021/12/24 03:56:35;;;;;;;12.40;4.00;;;2.30;99.90;;;;;;5039477;28;20313;-75
2021/12/24 03:59:00;;;;;;;17.23;5.40;;;2.30;99.90;;;;;;5033250;28;20282;-75
2021/12/24 04:01:26;;;;;;;8.80;2.83;;;2.20;99.90;;;;;;5053276;28;20798;-74
2021/12/24 04:03:51;;;;;;;6.67;2.33;;;2.30;99.90;;;;;;5041486;28;20182;-75
2021/12/24 04:06:17;;;;;;;10.17;3.40;;;2.30;99.90;;;;;;5037490;28;20210;-74
2021/12/24 04:08:43;;;;;;;13.63;4.37;;;2.30;99.90;;;;;;5033602;28;20611;-75
2021/12/24 04:11:09;;;;;;;12.83;4.07;;;2.40;99.90;;;;;;5038863;28;20204;-75
2021/12/24 04:13:35;;;;;;;17.13;5.27;;;2.50;99.90;;;;;;5037223;28;20183;-74
2021/12/24 04:16:02;;;;;;;14.40;4.57;;;2.40;99.90;;;;;;5034337;28;20610;-75
2021/12/24 04:26:27;;;;;;;15.27;4.80;;;2.40;99.90;;;;;;5035565;28;20210;-75
2021/12/24 04:28:52;;;;;;;10.67;3.50;;;2.40;99.90;;;;;;5038462;28;20464;-75
2021/12/24 04:31:23;;;;;;;13.83;4.27;;;2.50;99.90;;;;;;5043209;28;20299;-75
2021/12/24 04:33:50;;;;;;;12.60;4.10;;;2.60;99.90;;;;;;5036778;28;20259;-75
2021/12/24 04:36:37;;;;;;;5.80;2.10;;;2.50;99.90;;;;;;5043354;28;20190;-75
2021/12/24 04:39:51;;;;;;;15.00;4.80;;;2.10;99.90;;;;;;5047232;28;21604;-75
2021/12/24 05:01:10;;;;;;;13.83;4.30;;;2.40;99.90;;;;;;5043686;28;20709;-75
2021/12/24 05:01:35;;;;;;;10.57;3.40;;;1.90;99.90;;;;;;5037770;28;20190;-74
2021/12/24 05:04:03;;;;;;;13.30;4.23;;;2.60;99.90;;;;;;5040848;28;20175;-74
2021/12/24 05:06:34;;;;;;;10.17;3.40;;;2.80;99.90;;;;;;5037656;28;20175;-74
2021/12/24 05:09:07;;;;;;;7.77;2.67;;;2.60;99.90;;;;;;5039376;28;20184;-74
2021/12/24 05:11:33;;;;;;;16.07;5.00;;;2.70;99.90;;;;;;5034223;28;20211;-74
2021/12/24 05:13:59;;;;;;;15.97;4.97;;;2.70;99.90;;;;;;5036827;28;20180;-74
2021/12/24 05:16:37;;;;;;;11.60;3.67;;;2.70;99.90;;;;;;5036389;28;20207;-74
2021/12/24 05:21:32;;;;;;;11.53;3.57;;;2.80;99.90;;;;;;5034185;28;20528;-74
2021/12/24 05:21:50;;;;;;;14.87;4.70;;;2.80;99.90;;;;;;5036662;28;20935;-74
2021/12/24 05:24:19;;;;;;;13.63;4.27;;;2.80;99.90;;;;;;5035050;28;20205;-75
2021/12/24 05:26:48;;;;;;;13.40;4.17;;;2.90;99.90;;;;;;5039216;28;20175;-75
2021/12/24 05:29:15;;;;;;;22.63;6.57;;;2.70;99.90;;;;;;5037194;28;20196;-75
2021/12/24 05:31:41;;;;;;;11.60;3.53;;;2.90;99.90;;;;;;5042210;28;20712;-75
2021/12/24 05:34:07;;;;;;;11.33;3.67;;;;;;;;;;5038945;28;20627;-74
2021/12/24 05:36:33;;;;;;;14.73;4.50;;;2.90;99.90;;;;;;5040595;28;20671;-75
2021/12/24 05:38:59;;;;;;;16.20;4.97;;;2.80;99.90;;;;;;5037028;28;20176;-75
2021/12/24 05:41:25;;;;;;;11.83;3.77;;;3.00;99.90;;;;;;5037863;28;20196;-75
2021/12/24 05:43:51;;;;;;;16.67;5.17;;;2.80;99.90;;;;;;5041742;28;20858;-75
2021/12/24 05:46:17;;;;;;;7.50;2.50;;;2.90;99.90;;;;;;5040736;28;20190;-75
2021/12/24 05:48:42;;;;;;;11.93;3.73;;;3.50;99.90;;;;;;5040402;28;20565;-75
2021/12/24 05:51:09;;;;;;;13.37;4.03;;;3.00;99.90;;;;;;5040750;28;20206;-75
2021/12/24 05:53:35;;;;;;;14.03;4.20;;;3.70;99.90;;;;;;5036305;28;20169;-75
2021/12/24 05:56:01;;;;;;;9.27;3.03;;;3.00;99.90;;;;;;5039039;28;20176;-75
2021/12/24 05:58:27;;;;;;;9.60;3.10;;;;;;;;;;5040491;28;20184;-75
2021/12/24 06:00:53;;;;;;;9.43;3.20;;;3.00;99.90;;;;;;5039883;28;20183;-75
2021/12/24 06:03:19;;;;;;;24.93;6.93;;;;;;;;;;5041465;28;20260;-74
2021/12/24 06:05:46;;;;;;;16.10;4.70;;;;;;;;;;5043441;28;20211;-75
2021/12/24 06:08:13;;;;;;;15.90;4.63;;;;;;;;;;5038098;28;20274;-75
2021/12/24 06:10:40;;;;;;;11.93;3.70;;;;;;;;;;5037216;28;20187;-75
2021/12/24 06:13:08;;;;;;;14.77;4.23;;;;;;;;;;5039606;28;20207;-75
2021/12/24 06:15:43;;;;;;;11.17;3.43;;;;;;;;;;5037408;28;20761;-75
2021/12/24 06:18:28;;;;;;;11.50;3.53;;;;;;;;;;5037451;28;20182;-75
2021/12/24 06:20:56;;;;;;;16.73;4.80;;;;;;;;;;5036340;28;20327;-74
2021/12/24 06:23:24;;;;;;;22.17;6.23;;;;;;;;;;5037529;28;21257;-73
2021/12/24 06:25:52;;;;;;;11.50;3.57;;;;;;;;;;5041114;28;20921;-75
2021/12/24 06:28:19;;;;;;;8.73;2.73;;;;;;;;;;5039016;28;20547;-75
2021/12/24 06:30:45;;;;;;;13.33;4.00;;;3.20;99.90;;;;;;5038085;28;20229;-74
2021/12/24 06:33:11;;;;;;;17.50;4.83;;;3.30;99.90;;;;;;5041298;28;20775;-75
2021/12/24 06:35:37;;;;;;;7.73;2.53;;;3.30;99.90;;;;;;5042480;28;20190;-74
2021/12/24 06:38:04;;;;;;;8.47;2.70;;;3.40;99.90;;;;;;5041829;28;20604;-75
2021/12/24 06:40:29;;;;;;;21.47;5.83;;;3.40;99.90;;;;;;5039087;28;20245;-74
2021/12/24 06:42:55;;;;;;;5.93;2.03;;;;;;;;;;5039536;28;20221;-73
2021/12/24 06:45:23;;;;;;;14.77;4.13;;;;;;;;;;5035650;28;20199;-74
2021/12/24 06:47:49;;;;;;;13.07;3.73;;;;;;;;;;5052885;28;20183;-74
2021/12/24 06:50:15;;;;;;;13.10;3.67;;;;;;;;;;5042801;28;20244;-73
2021/12/24 06:52:41;;;;;;;11.37;3.17;;;;;;;;;;5036014;28;20219;-74
2021/12/24 06:55:08;;;;;;;9.77;2.90;;;;;;;;;;5040083;28;20652;-74
2021/12/24 06:57:34;;;;;;;9.57;2.80;;;;;;;;;;5043178;28;20190;-73
2021/12/24 07:00:00;;;;;;;14.10;3.77;;;;;;;;;;5037485;28;20176;-74
2021/12/24 07:02:26;;;;;;;25.10;6.27;;;;;;;;;;5030337;28;20204;-74
2021/12/24 07:04:52;;;;;;;15.53;4.10;;;;;;;;;;5043636;28;20187;-74
2021/12/24 07:07:19;;;;;;;14.70;3.90;;;;;;;;;;5029774;28;20186;-73
2021/12/24 07:09:46;;;;;;;18.73;4.70;;;;;;;;;;5040252;28;20277;-74
2021/12/24 07:12:14;;;;;;;17.90;4.53;;;;;;;;;;5041676;28;20221;-74
2021/12/24 07:14:42;;;;;;;16.60;4.23;;;;;;;;;;5035045;28;20190;-74
2021/12/24 07:17:09;;;;;;;8.67;2.37;;;;;;;;;;5045989;28;20179;-73
2021/12/24 07:19:35;;;;;;;8.43;2.40;;;;;;;;;;5042057;28;20836;-73
2021/12/24 07:22:01;;;;;;;20.17;4.87;;;;;;;;;;5036927;28;20696;-74
2021/12/24 07:24:27;;;;;;;19.50;4.57;;;;;;;;;;5034016;28;20186;-73
2021/12/24 07:26:53;;;;;;;27.13;6.13;;;;;;;;;;5046781;28;20843;-74
2021/12/24 07:29:19;;;;;;;15.57;3.67;;;;;;;;;;5040899;28;20264;-74
2021/12/24 07:31:45;;;;;;;24.17;5.23;;;;;;;;;;5045900;28;20216;-74
2021/12/24 07:34:11;;;;;;;15.93;3.80;;;;;;;;;;5041357;28;20274;-72
2021/12/24 07:36:37;;;;;;;28.70;6.27;;;;;;;;;;5036613;28;20269;-74
2021/12/24 07:39:03;;;;;;;26.70;5.83;;;;;;;;;;5044334;28;20176;-73
2021/12/24 07:41:30;;;;;;;26.73;5.60;;;;;;;;;;5038504;28;20325;-74
2021/12/24 07:43:56;;;;;;;27.73;5.93;;;;;;;;;;5029594;28;20688;-75
2021/12/24 07:46:25;;;;;;;24.23;5.27;;;;;;;;;;5036844;28;20184;-68
2021/12/24 07:49:01;;;;;;;26.33;5.63;;;;;;;;;;5031187;28;21098;-67
2021/12/24 07:54:12;;;;;;;37.13;7.47;;;;;;;;;;5038326;28;20215;-67
2021/12/24 07:56:38;;;;;;;26.47;5.43;;;;;;;;;;5037078;28;20913;-69
2021/12/24 07:59:04;;;;;;;24.17;5.17;;;;;;;;;;5033555;28;20188;-69
2021/12/24 08:01:30;;;;;;;31.07;6.20;;;;;;;;;;5043938;28;20222;-67
2021/12/24 08:03:56;;;;;;;25.13;5.23;;;;;;;;;;5030061;28;20187;-68
2021/12/24 08:06:26;;;;;;;28.17;5.80;;;;;;;;;;5038404;28;20183;-69
2021/12/24 08:08:51;;;;;;;29.67;6.00;;;;;;;;;;5037018;28;20708;-69
2021/12/24 08:11:17;;;;;;;15.27;3.30;;;;;;;;;;5039710;28;20199;-69
2021/12/24 08:13:43;;;;;;;43.53;8.43;;;;;;;;;;5031999;28;20188;-68
2021/12/24 08:16:10;;;;;;;24.77;5.00;;;;;;;;;;5032868;28;20192;-68
2021/12/24 08:18:37;;;;;;;20.60;4.30;;;;;;;;;;5032376;28;20253;-67
2021/12/24 08:21:03;;;;;;;29.23;5.70;;;;;;;;;;5031839;28;20236;-67
2021/12/24 08:23:29;;;;;;;35.67;6.93;;;;;;;;;;5033416;28;20234;-70
2021/12/24 08:25:58;;;;;;;33.13;6.50;;;;;;;;;;5031986;28;20726;-69
2021/12/24 08:28:25;;;;;;;17.53;3.67;;;;;;;;;;5041075;28;20790;-70
2021/12/24 08:30:51;;;;;;;14.00;3.13;;;;;;;;;;5039643;28;20191;-69
2021/12/24 08:33:17;;;;;;;27.97;5.63;;;;;;;;;;5039312;28;21742;-69
2021/12/24 08:35:43;;;;;;;13.50;3.10;;;;;;;;;;5054188;28;20216;-70
2021/12/24 08:38:08;;;;;;;19.33;4.07;;;;;;;;;;5044358;28;20183;-67
2021/12/24 08:40:34;;;;;;;16.27;3.47;;;;;;;;;;5050969;28;20198;-65
2021/12/24 08:43:01;;;;;;;22.13;4.60;;;;;;;;;;5034418;28;20210;-65
2021/12/24 08:45:27;;;;;;;18.87;4.07;;;;;;;;;;5044412;28;20186;-66
2021/12/24 08:47:53;;;;;;;20.57;4.33;;;;;;;;;;5047526;28;20171;-67
2021/12/24 08:50:18;;;;;;;27.27;5.47;;;;;;;;;;5042233;28;20184;-67
2021/12/24 08:52:46;;;;;;;14.90;3.20;;;;;;;;;;5050367;28;20246;-67
2021/12/24 08:55:13;;;;;;;18.47;3.97;;;;;;;;;;5039898;28;20179;-67
2021/12/24 08:57:40;;;;;;;24.40;4.93;;;;;;;;;;5041244;28;20549;-67
2021/12/24 09:00:06;;;;;;;15.33;3.33;;;;;;;;;;5033720;28;20181;-67
2021/12/24 09:02:32;;;;;;;18.67;4.07;;;;;;;;;;5034933;28;20223;-67
2021/12/24 09:04:58;;;;;;;30.60;6.00;;;;;;;;;;5030882;28;20666;-68
2021/12/24 09:07:24;;;;;;;16.63;3.60;;;;;;;;;;5034836;28;20214;-67
2021/12/24 09:09:50;;;;;;;26.03;5.37;;;;;;;;;;5032729;28;20188;-67
2021/12/24 09:12:16;;;;;;;48.30;9.27;;;;;;;;;;5030830;28;20224;-67
2021/12/24 09:14:42;;;;;;;20.40;4.33;;;;;;;;;;5033511;28;20184;-66
2021/12/24 09:17:08;;;;;;;25.27;5.23;;;;;;;;;;5038975;28;20297;-67
2021/12/24 09:19:35;;;;;;;13.97;3.13;;;;;;;;;;5046578;28;20187;-66
2021/12/24 09:22:01;;;;;;;38.17;8.90;;;;;;;;;;5056965;22;21172;-47
2021/12/24 09:24:29;;;;;;;26.83;7.03;;;;;;;;;;5010387;28;20604;-47
2021/12/24 09:26:57;;;;;;;23.90;6.17;;;;;;;;;;5018016;28;20272;-46
2021/12/24 09:29:24;;;;;;;33.97;9.27;;;;;;;;;;5013014;28;20691;-46
2021/12/24 09:31:50;;;;;;;27.47;7.27;;;;;;;;;;5011038;28;20216;-46
2021/12/24 09:34:16;;;;;;;37.90;10.40;;;;;;;;;;4988393;28;20522;-46
2021/12/24 09:36:42;;;;;;;21.13;6.57;;;;;;;;;;5007925;28;20199;-46
2021/12/24 09:39:09;;;;;;;37.77;9.77;;;;;;;;;;5007922;28;20183;-46
2021/12/24 09:41:37;;;;;;;40.10;10.70;;;;;;;;;;5005873;28;20260;-46
2021/12/24 09:44:06;;;;;;;37.40;10.40;;;;;;;;;;5001898;28;20185;-46
2021/12/24 09:46:32;;;;;;;18.53;5.17;;;;;;;;;;5001863;28;20205;-46
2021/12/24 09:48:59;;;;;;;31.40;8.47;;;;;;;;;;5008699;28;20199;-46
2021/12/24 09:51:26;;;;;;;38.57;10.27;;;;;;;;;;5004266;28;20281;-46
2021/12/24 09:53:56;;;;;;;67.13;18.23;;;;;;;;;;4993711;28;20189;-46
2021/12/24 09:56:25;;;;;;;33.23;8.23;;;;;;;;;;4990337;28;20294;-46
2021/12/24 09:58:53;;;;;;;49.17;13.67;;;;;;;;;;5009498;28;20809;-46
2021/12/24 10:01:32;;;;;;;47.23;12.57;;;;;;;;;;5009410;28;20181;-46
2021/12/24 10:04:08;;;;;;;27.43;7.27;;;;;;;;;;5013702;28;20225;-45
2021/12/24 10:06:38;;;;;;;29.07;7.67;;;;;;;;;;5016769;28;20185;-46
2021/12/24 10:09:08;;;;;;;27.60;7.20;;;;;;;;;;5010599;28;20185;-46
2021/12/24 10:11:52;;;;;;;30.07;7.70;;;;;;;;;;5012229;28;20735;-46
2021/12/24 10:14:19;;;;;;;35.23;9.27;;;;;;;;;;5011003;28;20176;-46
2021/12/24 10:16:46;;;;;;;31.20;8.07;;;;;;;;;;5014032;28;20184;-46
2021/12/24 10:19:16;;;;;;;29.77;7.93;;;;;;;;;;5014042;28;20272;-46
2021/12/24 10:21:46;;;;;;;32.07;8.03;;;;;;;;;;5013125;28;20272;-46
2021/12/24 10:24:23;;;;;;;33.50;8.67;;;;;;;;;;5010036;28;20196;-46
2021/12/24 10:26:50;;;;;;;41.20;10.23;;;;;;;;;;5018767;28;20278;-46
2021/12/24 10:29:28;;;;;;;57.43;13.93;;;;;;;;;;4990496;28;21675;-46
2021/12/24 10:31:56;;;;;;;43.77;11.47;;;;;;;;;;4999465;28;20214;-46
2021/12/24 10:34:33;;;;;;;35.47;9.50;;;;;;;;;;5003973;28;20184;-46
2021/12/24 10:37:02;;;;;;;22.23;5.77;;;;;;;;;;5004128;28;20203;-46
2021/12/24 10:39:30;;;;;;;27.60;6.87;;;;;;;;;;5017823;28;20280;-46
2021/12/24 10:41:57;;;;;;;40.90;9.90;;;;;;;;;;5007808;28;20220;-46
2021/12/24 10:44:24;;;;;;;47.97;12.40;;;;;;;;;;5000372;28;20242;-46
2021/12/24 10:46:58;;;;;;;34.03;8.23;;;;;;;;;;5010505;28;20192;-46
2021/12/24 10:52:32;;;;;;;51.00;12.67;;;;;;;;;;5006952;28;21640;-47
2021/12/24 10:55:10;;;;;;;34.37;8.50;;;;;;;;;;5011752;28;20188;-47
2021/12/24 10:57:39;;;;;;;40.73;9.63;;;;;;;;;;5000177;28;20262;-47
2021/12/24 11:00:14;;;;;;;55.77;13.43;;;;;;;;;;4996726;28;20204;-47
2021/12/24 11:02:41;;;;;;;55.60;13.33;;;;;;;;;;5005132;28;20231;-47
2021/12/24 11:05:24;;;;;;;54.30;12.63;;;;;;;;;;5005312;28;20187;-47
2021/12/24 11:07:53;;;;;;;39.70;9.57;;;;;;;;;;5001459;28;20647;-47
2021/12/24 11:10:26;;;;;;;51.43;12.30;;;;;;;;;;5001483;28;20621;-47
2021/12/24 11:12:56;;;;;;;52.93;12.87;;;;;;;;;;5005577;28;20213;-47
2021/12/24 11:15:27;;;;;;;44.23;10.33;;;;;;;;;;4996799;28;20252;-47
2021/12/24 11:17:57;;;;;;;18.40;4.87;;;;;;;;;;4989833;28;20193;-47
2021/12/24 11:20:26;;;;;;;17.13;4.20;;;;;;;;;;5011641;28;20882;-47
2021/12/24 11:23:06;;;;;;;77.43;17.57;;;;;;;;;;4993110;28;20766;-47
2021/12/24 11:25:37;;;;;;;38.23;9.07;;;5.30;99.90;;;;;;4995960;28;20341;-47
2021/12/24 11:28:04;;;;;;;41.83;9.37;;;;;;;;;;5003942;28;20226;-47
2021/12/24 11:30:31;;;;;;;21.73;6.17;;;;;;;;;;4998093;28;20234;-47
2021/12/24 11:32:58;;;;;;;37.03;9.30;;;;;;;;;;5003055;28;20268;-47
2021/12/24 11:35:25;;;;;;;50.57;12.97;;;;;;;;;;5000586;28;20185;-47
2021/12/24 11:37:53;;;;;;;39.00;10.07;;;;;;;;;;5001748;28;20185;-47
2021/12/24 11:40:20;;;;;;;25.00;6.53;;;;;;;;;;4999948;28;20259;-47
2021/12/24 11:42:53;;;;;;;24.67;6.33;;;;;;;;;;5002476;28;20208;-47
2021/12/24 11:45:24;;;;;;;13.60;4.23;;;;;;;;;;5003203;28;20194;-47
2021/12/24 11:47:52;;;;;;;37.83;9.77;;;;;;;;;;4999582;28;20210;-47
2021/12/24 11:50:20;;;;;;;46.73;11.70;;;;;;;;;;5003584;28;20188;-47
2021/12/24 11:52:48;;;;;;;36.03;8.40;;;;;;;;;;5000555;28;20679;-47
2021/12/24 11:55:15;;;;;;;52.27;12.77;;;;;;;;;;4997447;28;20671;-47
2021/12/24 11:57:53;;;;;;;42.20;10.47;;;5.10;99.90;;;;;;4995354;28;20181;-47
2021/12/24 12:00:26;;;;;;;42.70;10.63;;;;;;;;;;4994819;28;20180;-47
2021/12/24 12:02:54;;;;;;;24.87;6.37;;;5.10;99.90;;;;;;4992083;28;20219;-47
2021/12/24 12:05:34;;;;;;;43.43;10.40;;;5.00;99.90;;;;;;5002261;28;20188;-47
2021/12/24 12:08:27;;;;;;;29.83;7.10;;;5.10;99.90;;;;;;4988935;28;20493;-47
2021/12/24 12:10:54;;;;;;;47.93;11.87;;;5.10;99.90;;;;;;4993035;28;20188;-48
2021/12/24 12:13:39;;;;;;;44.57;11.13;;;;;;;;;;5001307;28;20267;-47
2021/12/24 12:16:08;;;;;;;53.30;13.67;;;;;;;;;;4996626;28;20177;-47
2021/12/24 12:18:44;;;;;;;47.93;11.97;;;;;;;;;;4999432;28;20475;-47
2021/12/24 12:21:19;;;;;;;51.27;12.87;;;;;;;;;;4997063;28;20191;-48
2021/12/24 12:26:35;;;;;;;51.97;13.80;;;;;;;;;;4999999;28;20206;-48
2021/12/24 12:29:22;;;;;;;40.83;10.33;;;;;;;;;;4997041;28;20271;-47
2021/12/24 12:31:50;;;;;;;25.33;6.63;;;;;;;;;;5001197;28;20289;-48
2021/12/24 12:34:36;;;;;;;27.80;7.23;;;;;;;;;;5003181;28;20680;-48
2021/12/24 12:37:16;;;;;;;55.20;14.73;;;;;;;;;;5003013;28;20330;-47
2021/12/24 12:39:45;;;;;;;32.90;8.60;;;;;;;;;;5008063;28;20565;-48
2021/12/24 12:42:14;;;;;;;25.43;6.60;;;;;;;;;;4994991;28;21464;-48
2021/12/24 12:44:46;;;;;;;24.67;6.30;;;;;;;;;;5003048;28;20520;-48
2021/12/24 12:47:39;;;;;;;31.77;8.17;;;;;;;;;;5008798;28;20213;-48
2021/12/24 12:50:15;;;;;;;26.73;6.93;;;;;;;;;;5004971;28;20282;-47
2021/12/24 12:52:43;;;;;;;25.93;6.90;;;;;;;;;;5011406;28;20219;-48
2021/12/24 12:55:30;;;;;;;27.70;7.50;;;;;;;;;;5005764;28;25409;-47
2021/12/24 12:58:16;;;;;;;42.00;11.27;;;;;;;;;;5004566;28;20199;-48
2021/12/24 13:00:47;;;;;;;32.93;9.00;;;;;;;;;;5007449;28;20188;-48
2021/12/24 13:03:14;;;;;;;37.80;10.13;;;;;;;;;;5001845;28;20212;-47
2021/12/24 13:05:43;;;;;;;36.40;9.57;;;;;;;;;;5009170;28;20547;-48
2021/12/24 13:08:16;;;;;;;32.13;8.30;;;;;;;;;;5014786;28;20612;-47
2021/12/24 13:10:54;;;;;;;36.37;9.50;;;;;;;;;;5002416;28;20193;-47
2021/12/24 13:13:21;;;;;;;42.80;11.40;;;;;;;;;;4995917;28;20528;-47
2021/12/24 13:15:48;;;;;;;31.23;8.13;;;;;;;;;;4994249;28;20185;-47
2021/12/24 13:18:25;;;;;;;43.07;10.93;;;;;;;;;;5007818;28;20555;-47
2021/12/24 13:23:47;;;;;;;26.20;7.50;;;;;;;;;;4981433;28;20240;-47
2021/12/24 13:26:21;;;;;;;27.03;6.80;;;;;;;;;;5002691;28;20200;-47
2021/12/24 13:29:00;;;;;;;51.13;13.50;;;;;;;;;;5003223;28;20643;-47
2021/12/24 13:31:29;;;;;;;38.97;11.10;;;;;;;;;;4998827;28;20196;-47
2021/12/24 13:33:56;;;;;;;31.50;8.63;;;;;;;;;;4999364;28;20358;-47
2021/12/24 13:36:28;;;;;;;24.33;6.70;;;;;;;;;;5006950;28;20268;-48
2021/12/24 13:39:07;;;;;;;37.80;10.53;;;;;;;;;;5005887;28;20180;-47
2021/12/24 13:41:33;;;;;;;31.83;8.73;;;;;;;;;;5001307;28;20184;-47
2021/12/24 13:44:00;;;;;;;52.80;13.03;;;;;;;;;;4993428;28;20206;-47
2021/12/24 13:46:29;;;;;;;44.27;10.93;;;;;;;;;;4996049;28;20298;-47
2021/12/24 13:54:34;;;;;;;21.90;6.27;;;;;;;;;;5003340;28;20258;-47
2021/12/24 13:57:00;;;;;;;36.37;9.33;;;;;;;;;;5008333;28;20188;-47
2021/12/24 13:59:26;;;;;;;58.27;14.63;;;;;;;;;;4999499;28;21542;-47
2021/12/24 14:01:54;;;;;;;36.73;8.93;;;;;;;;;;4999594;28;20280;-48
2021/12/24 14:04:21;;;;;;;32.03;8.40;;;;;;;;;;5006288;28;20600;-47
2021/12/24 14:06:49;;;;;;;38.17;9.27;;;;;;;;;;5009984;28;20190;-48
2021/12/24 14:09:19;;;;;;;62.63;15.57;;;;;;;;;;5001070;28;21140;-47
2021/12/24 14:11:46;;;;;;;43.23;10.80;;;;;;;;;;4996370;28;20231;-47
2021/12/24 14:14:16;;;;;;;60.63;14.93;;;;;;;;;;4993683;28;24805;-47
2021/12/24 14:19:49;;;;;;;48.40;12.03;;;;;;;;;;4998586;28;20554;-47
2021/12/24 14:22:12;;;;;;;30.97;8.43;;;;;;;;;;4999796;28;20295;-47
2021/12/24 14:24:51;;;;;;;48.57;12.57;;;;;;;;;;5001047;28;20192;-47
2021/12/24 14:27:17;;;;;;;36.20;9.57;;;;;;;;;;4982044;28;20298;-48
2021/12/24 14:29:44;;;;;;;47.10;11.77;;;;;;;;;;4990498;28;20216;-48
2021/12/24 14:32:15;;;;;;;44.40;10.73;;;;;;;;;;5004337;28;20699;-48
2021/12/24 14:34:56;;;;;;;38.30;9.97;;;;;;;;;;4997224;28;20287;-47
2021/12/24 14:37:37;;;;;;;29.40;7.53;;;;;;;;;;5010548;28;20604;-47
2021/12/24 14:40:10;;;;;;;29.70;7.87;;;;;;;;;;5008539;28;20256;-47
2021/12/24 14:42:47;;;;;;;28.50;7.37;;;;;;;;;;5009076;28;20299;-47
2021/12/24 14:45:16;;;;;;;35.47;8.97;;;;;;;;;;4998767;28;20659;-47
2021/12/24 14:47:44;;;;;;;62.90;15.27;;;;;;;;;;4996123;28;20260;-47
2021/12/24 14:50:13;;;;;;;57.43;14.90;;;;;;;;;;4998190;28;20268;-47
2021/12/24 14:52:40;;;;;;;32.63;8.60;;;;;;;;;;4995055;28;20741;-47
2021/12/24 14:55:09;;;;;;;47.93;11.77;;;;;;;;;;4994883;28;20210;-47
2021/12/24 14:57:46;;;;;;;47.67;11.60;;;;;;;;;;4996610;28;20303;-47
2021/12/24 15:00:15;;;;;;;30.73;7.90;;;;;;;;;;4998261;28;20274;-47
2021/12/24 15:02:46;;;;;;;49.47;11.90;;;;;;;;;;4996697;28;20561;-47
2021/12/24 15:05:23;;;;;;;49.77;12.17;;;;;;;;;;4997488;28;20267;-47
2021/12/24 15:07:52;;;;;;;62.57;14.93;;;;;;;;;;4995613;28;20207;-47
2021/12/24 15:10:21;;;;;;;33.30;8.30;;;;;;;;;;4988354;28;20181;-47
2021/12/24 15:12:51;;;;;;;45.00;12.03;;;;;;;;;;5002781;28;20338;-47
2021/12/24 15:15:20;;;;;;;41.60;10.03;;;;;;;;;;4999081;28;20229;-47
2021/12/24 15:17:47;;;;;;;45.73;11.83;;;;;;;;;;4981594;28;20189;-47
2021/12/24 15:20:14;;;;;;;51.23;12.03;;;;;;;;;;5000864;28;20295;-47
2021/12/24 15:22:41;;;;;;;21.67;4.77;;;;;;;;;;5017712;22;20236;-69
2021/12/24 15:25:10;;;;;;;19.57;4.13;;;;;;;;;;5014660;28;20189;-69
2021/12/24 15:27:38;;;;;;;67.30;13.37;;;;;;;;;;5015549;28;20245;-71
2021/12/24 15:30:09;;;;;;;17.77;3.90;;;;;;;;;;4996947;28;20314;-69
2021/12/24 15:32:36;;;;;;;27.83;5.73;;;;;;;;;;5024590;28;20697;-68
2021/12/24 15:35:05;;;;;;;22.00;4.57;;;;;;;;;;5014947;28;20638;-70
2021/12/24 15:37:32;;;;;;;23.80;5.17;;;;;;;;;;5014148;28;20191;-69
2021/12/24 15:39:59;;;;;;;16.73;3.67;;;;;;;;;;5012418;28;20319;-69
2021/12/24 15:42:29;;;;;;;12.20;2.90;;;;;;;;;;5027916;28;20223;-70
2021/12/24 15:44:56;;;;;;;19.10;4.17;;;;;;;;;;5014880;28;20188;-70